createdAt,value
2023-04-12T00:00:03.505Z,79.98
2023-04-12T00:01:03.463Z,79.98
2023-04-12T00:02:03.381Z,80.08
2023-04-12T00:03:03.789Z,79.88
2023-04-12T00:04:03.771Z,79.98
2023-04-12T00:05:03.772Z,79.68
2023-04-12T00:06:03.648Z,79.78
2023-04-12T00:07:02.725Z,80.29
2023-04-12T00:08:02.668Z,80.29
2023-04-12T00:09:03.090Z,80.08
2023-04-12T00:10:03.046Z,79.88
2023-04-12T00:11:03.102Z,80.08
2023-04-12T00:12:02.453Z,79.98
2023-04-12T00:13:02.455Z,80.08
2023-04-12T00:14:02.429Z,80.69
2023-04-12T00:15:02.630Z,81.41
2023-04-12T00:16:02.524Z,81.21
2023-04-12T00:17:02.366Z,81.41
2023-04-12T00:18:02.893Z,80.49
2023-04-12T00:19:02.492Z,80.90
2023-04-12T00:20:02.654Z,81.10
2023-04-12T00:21:02.361Z,81.51
2023-04-12T00:22:03.382Z,81.41
2023-04-12T00:23:02.861Z,81.62
2023-04-12T00:24:03.325Z,81.31
2023-04-12T00:25:03.301Z,81.31
2023-04-12T00:26:03.174Z,80.90
2023-04-12T00:27:03.134Z,81.01
2023-04-12T00:28:03.301Z,80.90
2023-04-12T00:29:03.026Z,80.80
2023-04-12T00:30:03.486Z,81.21
2023-04-12T00:31:03.165Z,81.41
2023-04-12T00:32:03.292Z,81.62
2023-04-12T00:33:03.118Z,81.72
2023-04-12T00:34:02.945Z,82.03
2023-04-12T00:35:03.125Z,82.03
2023-04-12T00:36:02.898Z,81.48
2023-04-12T00:37:03.579Z,81.27
2023-04-12T00:38:03.043Z,81.27
2023-04-12T00:39:03.445Z,81.38
2023-04-12T00:40:03.380Z,81.68
2023-04-12T00:41:03.322Z,81.48
2023-04-12T00:42:03.040Z,81.48
2023-04-12T00:43:03.269Z,81.68
2023-04-12T00:44:03.193Z,81.48
2023-04-12T00:45:02.774Z,81.68
2023-04-12T00:46:02.914Z,81.68
2023-04-12T00:47:03.325Z,82.60
2023-04-12T00:48:03.349Z,82.60
2023-04-12T00:49:03.198Z,82.60
2023-04-12T00:50:03.265Z,82.70
2023-04-12T00:51:02.961Z,83.01
2023-04-12T00:52:03.323Z,82.70
2023-04-12T00:53:03.101Z,82.50
2023-04-12T00:54:02.872Z,83.38
2023-04-12T00:55:02.969Z,83.28
2023-04-12T00:56:02.731Z,83.07
2023-04-12T00:57:03.544Z,83.18
2023-04-12T00:58:03.370Z,83.18
2023-04-12T00:59:03.786Z,83.18
2023-04-12T01:00:03.738Z,83.07
2023-04-12T01:01:03.495Z,82.97
2023-04-12T01:02:02.715Z,82.26
2023-04-12T01:03:02.853Z,82.46
2023-04-12T01:04:02.441Z,82.97
2023-04-12T01:05:02.884Z,83.52
2023-04-12T01:06:02.324Z,83.93
2023-04-12T01:07:02.888Z,84.07
2023-04-12T01:08:02.737Z,84.79
2023-04-12T01:09:03.273Z,85.10
2023-04-12T01:10:03.286Z,85.81
2023-04-12T01:11:03.034Z,86.16
2023-04-12T01:12:03.371Z,86.26
2023-04-12T01:13:03.354Z,85.75
2023-04-12T01:14:03.454Z,85.96
2023-04-12T01:15:03.638Z,86.46
2023-04-12T01:16:03.345Z,85.91
2023-04-12T01:17:03.309Z,85.81
2023-04-12T01:18:02.984Z,85.50
2023-04-12T01:19:03.273Z,84.79
2023-04-12T01:20:04.240Z,84.58
2023-04-12T01:21:02.676Z,84.48
2023-04-12T01:22:03.032Z,84.48
2023-04-12T01:23:03.336Z,84.89
2023-04-12T01:24:03.472Z,84.79
2023-04-12T01:25:02.968Z,84.89
2023-04-12T01:26:03.164Z,84.89
2023-04-12T01:27:02.725Z,84.69
2023-04-12T01:28:02.587Z,85.55
2023-04-12T01:29:03.081Z,85.34
2023-04-12T01:30:02.647Z,85.03
2023-04-12T01:31:03.147Z,85.03
2023-04-12T01:32:03.332Z,85.64
2023-04-12T01:33:03.231Z,85.34
2023-04-12T01:34:03.080Z,85.44
2023-04-12T01:35:03.563Z,85.64
2023-04-12T01:36:04.566Z,85.85
2023-04-12T01:37:03.019Z,85.96
2023-04-12T01:38:03.017Z,85.89
2023-04-12T01:39:03.074Z,86.46
2023-04-12T01:40:03.003Z,86.71
2023-04-12T01:41:02.644Z,86.81
2023-04-12T01:42:03.294Z,86.91
2023-04-12T01:43:03.081Z,86.88
2023-04-12T01:44:03.539Z,86.36
2023-04-12T01:45:03.188Z,86.57
2023-04-12T01:46:03.614Z,86.98
2023-04-12T01:47:02.652Z,87.02
2023-04-12T01:48:02.675Z,87.22
2023-04-12T01:49:02.449Z,87.53
2023-04-12T01:50:02.668Z,87.84
2023-04-12T01:51:02.408Z,88.29
2023-04-12T01:52:02.681Z,89.00
2023-04-12T01:53:02.770Z,88.90
2023-04-12T01:54:02.445Z,89.21
2023-04-12T01:55:02.892Z,89.42
2023-04-12T01:56:02.655Z,89.51
2023-04-12T01:57:03.427Z,89.72
2023-04-12T01:58:03.129Z,89.92
2023-04-12T01:59:03.316Z,90.03
2023-04-12T02:00:02.752Z,90.03
2023-04-12T02:01:03.369Z,90.58
2023-04-12T02:02:02.683Z,90.64
2023-04-12T02:03:02.382Z,90.69
2023-04-12T02:04:02.800Z,91.20
2023-04-12T02:05:02.842Z,91.20
2023-04-12T02:06:02.936Z,91.50
2023-04-12T02:07:02.267Z,91.61
2023-04-12T02:08:01.818Z,91.82
2023-04-12T02:09:02.350Z,92.32
2023-04-12T02:10:02.187Z,92.27
2023-04-12T02:11:02.153Z,92.43
2023-04-12T02:12:02.318Z,92.68
2023-04-12T02:13:02.770Z,92.98
2023-04-12T02:14:02.735Z,92.78
2023-04-12T02:15:02.290Z,93.19
2023-04-12T02:16:02.572Z,93.70
2023-04-12T02:17:02.649Z,93.60
2023-04-12T02:18:02.654Z,93.90
2023-04-12T02:19:02.563Z,94.01
2023-04-12T02:20:02.818Z,94.11
2023-04-12T02:21:02.462Z,93.90
2023-04-12T02:22:02.538Z,93.95
2023-04-12T02:23:02.606Z,94.05
2023-04-12T02:24:02.594Z,94.15
2023-04-12T02:25:02.890Z,94.21
2023-04-12T02:26:02.743Z,94.32
2023-04-12T02:27:02.450Z,94.11
2023-04-12T02:28:01.852Z,94.21
2023-04-12T02:29:02.375Z,94.21
2023-04-12T02:30:02.005Z,94.46
2023-04-12T02:31:02.246Z,94.52
2023-04-12T02:32:02.346Z,94.62
2023-04-12T02:33:02.119Z,94.56
2023-04-12T02:34:01.907Z,94.36
2023-04-12T02:35:02.173Z,94.36
2023-04-12T02:36:02.075Z,94.26
2023-04-12T02:37:01.631Z,93.95
2023-04-12T02:38:02.016Z,94.46
2023-04-12T02:39:01.853Z,94.36
2023-04-12T02:40:02.035Z,94.56
2023-04-12T02:41:02.094Z,94.36
2023-04-12T02:42:02.009Z,94.46
2023-04-12T02:43:02.406Z,94.05
2023-04-12T02:44:02.225Z,93.90
2023-04-12T02:45:01.975Z,93.64
2023-04-12T02:46:01.924Z,94.15
2023-04-12T02:47:02.964Z,94.56
2023-04-12T02:48:02.846Z,94.46
2023-04-12T02:49:02.796Z,94.56
2023-04-12T02:50:02.866Z,94.56
2023-04-12T02:51:02.657Z,94.46
2023-04-12T02:52:02.395Z,94.56
2023-04-12T02:53:01.926Z,95.07
2023-04-12T02:54:02.090Z,94.87
2023-04-12T02:55:02.409Z,95.18
2023-04-12T02:56:03.228Z,95.28
2023-04-12T02:57:01.940Z,95.49
2023-04-12T02:58:02.293Z,95.07
2023-04-12T02:59:02.070Z,95.18
2023-04-12T03:00:02.090Z,94.87
2023-04-12T03:01:02.575Z,94.98
2023-04-12T03:02:02.805Z,95.07
2023-04-12T03:03:02.873Z,95.39
2023-04-12T03:04:02.234Z,95.90
2023-04-12T03:05:02.493Z,96.10
2023-04-12T03:06:02.243Z,95.79
2023-04-12T03:07:02.825Z,95.49
2023-04-12T03:08:03.160Z,95.49
2023-04-12T03:09:02.707Z,95.28
2023-04-12T03:10:03.034Z,95.79
2023-04-12T03:11:02.859Z,95.39
2023-04-12T03:12:02.808Z,95.39
2023-04-12T03:13:03.264Z,95.14
2023-04-12T03:14:03.330Z,95.03
2023-04-12T03:15:02.762Z,94.83
2023-04-12T03:16:02.938Z,94.73
2023-04-12T03:17:03.104Z,95.28
2023-04-12T03:18:02.879Z,95.28
2023-04-12T03:19:02.534Z,95.28
2023-04-12T03:20:02.530Z,95.39
2023-04-12T03:21:02.895Z,95.59
2023-04-12T03:22:02.641Z,95.69
2023-04-12T03:23:03.042Z,95.79
2023-04-12T03:24:03.262Z,96.10
2023-04-12T03:25:02.839Z,96.10
2023-04-12T03:26:02.635Z,96.00
2023-04-12T03:27:02.636Z,95.90
2023-04-12T03:28:02.213Z,95.90
2023-04-12T03:29:02.435Z,95.59
2023-04-12T03:30:02.716Z,95.90
2023-04-12T03:31:02.509Z,95.90
2023-04-12T03:32:02.354Z,96.00
2023-04-12T03:33:02.877Z,96.00
2023-04-12T03:34:02.638Z,96.20
2023-04-12T03:35:02.293Z,96.10
2023-04-12T03:36:02.896Z,96.41
2023-04-12T03:37:02.085Z,96.20
2023-04-12T03:38:02.298Z,96.35
2023-04-12T03:39:02.060Z,96.45
2023-04-12T03:40:02.564Z,96.56
2023-04-12T03:41:02.011Z,96.25
2023-04-12T03:42:02.586Z,96.66
2023-04-12T03:43:02.817Z,96.35
2023-04-12T03:44:02.613Z,96.56
2023-04-12T03:45:02.741Z,96.25
2023-04-12T03:46:02.919Z,96.45
2023-04-12T03:47:02.789Z,96.45
2023-04-12T03:48:02.753Z,96.45
2023-04-12T03:49:02.569Z,96.77
2023-04-12T03:50:10.376Z,96.56
2023-04-12T03:51:02.377Z,96.77
2023-04-12T03:52:02.622Z,96.66
2023-04-12T03:53:02.819Z,96.56
2023-04-12T03:54:02.624Z,96.56
2023-04-12T03:55:02.993Z,96.77
2023-04-12T03:56:02.840Z,96.45
2023-04-12T03:57:02.018Z,96.45
2023-04-12T03:58:02.426Z,96.56
2023-04-12T03:59:02.055Z,96.25
2023-04-12T04:00:02.215Z,96.35
2023-04-12T04:01:02.115Z,96.45
2023-04-12T04:02:03.102Z,96.45
2023-04-12T04:03:03.291Z,96.45
2023-04-12T04:04:03.425Z,96.77
2023-04-12T04:05:02.908Z,96.77
2023-04-12T04:06:02.712Z,96.97
2023-04-12T04:07:02.104Z,96.45
2023-04-12T04:08:02.725Z,96.56
2023-04-12T04:09:02.154Z,96.66
2023-04-12T04:10:02.618Z,96.97
2023-04-12T04:11:02.303Z,96.97
2023-04-12T04:12:02.823Z,96.87
2023-04-12T04:13:02.713Z,96.77
2023-04-12T04:14:03.055Z,96.87
2023-04-12T04:15:03.067Z,96.77
2023-04-12T04:16:03.098Z,96.77
2023-04-12T04:17:02.855Z,96.97
2023-04-12T04:18:03.249Z,96.77
2023-04-12T04:19:02.775Z,96.97
2023-04-12T04:20:03.252Z,97.07
2023-04-12T04:21:02.797Z,96.97
2023-04-12T04:22:02.478Z,96.97
2023-04-12T04:23:02.513Z,96.97
2023-04-12T04:24:02.534Z,96.97
2023-04-12T04:25:02.341Z,96.97
2023-04-12T04:26:02.648Z,96.97
2023-04-12T04:27:02.743Z,97.07
2023-04-12T04:28:02.571Z,97.17
2023-04-12T04:29:02.566Z,96.97
2023-04-12T04:30:02.916Z,97.07
2023-04-12T04:31:03.154Z,96.87
2023-04-12T04:32:03.007Z,96.87
2023-04-12T04:33:03.077Z,96.97
2023-04-12T04:34:02.657Z,97.17
2023-04-12T04:35:02.886Z,96.62
2023-04-12T04:36:02.568Z,96.51
2023-04-12T04:37:03.079Z,96.41
2023-04-12T04:38:03.211Z,96.41
2023-04-12T04:39:03.216Z,96.41
2023-04-12T04:40:03.230Z,96.20
2023-04-12T04:41:03.053Z,96.31
2023-04-12T04:42:02.731Z,96.41
2023-04-12T04:43:02.630Z,96.31
2023-04-12T04:44:02.555Z,96.25
2023-04-12T04:45:02.769Z,96.66
2023-04-12T04:46:02.522Z,96.87
2023-04-12T04:47:02.991Z,96.87
2023-04-12T04:48:02.907Z,96.62
2023-04-12T04:49:03.198Z,96.62
2023-04-12T04:50:02.744Z,96.62
2023-04-12T04:51:02.596Z,96.72
2023-04-12T04:52:02.497Z,96.51
2023-04-12T04:53:02.654Z,96.31
2023-04-12T04:54:02.478Z,96.31
2023-04-12T04:55:04.040Z,96.41
2023-04-12T04:56:02.644Z,96.41
2023-04-12T04:57:02.746Z,96.31
2023-04-12T04:58:02.582Z,96.20
2023-04-12T04:59:02.724Z,96.10
2023-04-12T05:00:02.529Z,96.00
2023-04-12T05:01:02.731Z,96.10
2023-04-12T05:02:02.212Z,96.31
2023-04-12T05:03:02.173Z,96.51
2023-04-12T05:04:02.210Z,96.62
2023-04-12T05:05:01.776Z,96.31
2023-04-12T05:06:02.237Z,96.41
2023-04-12T05:07:02.750Z,96.41
2023-04-12T05:08:02.807Z,96.82
2023-04-12T05:09:02.336Z,96.62
2023-04-12T05:10:02.794Z,96.51
2023-04-12T05:11:02.541Z,96.41
2023-04-12T05:12:03.047Z,96.20
2023-04-12T05:13:02.683Z,96.10
2023-04-12T05:14:02.589Z,96.31
2023-04-12T05:16:02.870Z,96.62
2023-04-12T05:17:02.528Z,96.51
2023-04-12T05:18:02.353Z,96.62
2023-04-12T05:19:02.248Z,96.41
2023-04-12T05:20:02.058Z,96.72
2023-04-12T05:21:02.342Z,96.72
2023-04-12T05:22:02.877Z,96.62
2023-04-12T05:23:02.609Z,96.00
2023-04-12T05:24:02.430Z,96.31
2023-04-12T05:25:02.556Z,96.31
2023-04-12T05:26:02.312Z,96.51
2023-04-12T05:27:02.548Z,96.62
2023-04-12T05:28:01.996Z,96.72
2023-04-12T05:29:02.504Z,96.62
2023-04-12T05:30:02.032Z,97.03
2023-04-12T05:31:02.610Z,97.13
2023-04-12T05:32:02.761Z,97.13
2023-04-12T05:33:02.342Z,97.33
2023-04-12T05:34:02.450Z,97.33
2023-04-12T05:35:02.389Z,97.33
2023-04-12T05:36:02.304Z,97.23
2023-04-12T05:37:01.790Z,97.33
2023-04-12T05:38:02.028Z,97.54
2023-04-12T05:39:02.255Z,97.44
2023-04-12T05:40:02.168Z,97.64
2023-04-12T05:41:01.871Z,97.39
2023-04-12T05:42:02.609Z,97.23
2023-04-12T05:43:02.305Z,97.33
2023-04-12T05:44:02.434Z,97.39
2023-04-12T05:45:02.603Z,97.39
2023-04-12T05:46:02.568Z,97.29
2023-04-12T05:47:02.823Z,96.98
2023-04-12T05:48:02.584Z,97.29
2023-04-12T05:49:02.855Z,97.39
2023-04-12T05:50:03.210Z,97.54
2023-04-12T05:51:02.509Z,97.95
2023-04-12T05:52:02.060Z,98.05
2023-04-12T05:53:02.333Z,98.05
2023-04-12T05:54:02.582Z,97.85
2023-04-12T05:55:02.555Z,97.95
2023-04-12T05:56:02.295Z,97.95
2023-04-12T05:57:02.101Z,98.57
2023-04-12T05:58:02.535Z,98.25
2023-04-12T05:59:02.366Z,98.36
2023-04-12T06:00:02.284Z,98.46
2023-04-12T06:01:02.699Z,98.57
2023-04-12T06:02:02.233Z,98.77
2023-04-12T06:03:02.258Z,98.57
2023-04-12T06:04:02.861Z,98.97
2023-04-12T06:05:02.629Z,99.08
2023-04-12T06:06:02.147Z,98.77
2023-04-12T06:07:03.142Z,98.46
2023-04-12T06:08:02.969Z,98.46
2023-04-12T06:09:03.255Z,98.46
2023-04-12T06:10:02.858Z,98.67
2023-04-12T06:11:02.738Z,98.57
2023-04-12T06:12:02.384Z,98.57
2023-04-12T06:13:02.638Z,98.87
2023-04-12T06:14:02.660Z,99.18
2023-04-12T06:15:02.652Z,98.87
2023-04-12T06:16:02.515Z,98.77
2023-04-12T06:17:02.392Z,98.57
2023-04-12T06:18:02.937Z,98.87
2023-04-12T06:19:02.633Z,99.08
2023-04-12T06:20:02.475Z,99.38
2023-04-12T06:21:02.824Z,98.97
2023-04-12T06:22:02.666Z,99.08
2023-04-12T06:23:03.063Z,99.08
2023-04-12T06:24:03.027Z,99.18
2023-04-12T06:25:02.856Z,99.08
2023-04-12T06:26:02.629Z,98.77
2023-04-12T06:27:02.281Z,98.97
2023-04-12T06:28:02.265Z,98.97
2023-04-12T06:29:02.769Z,98.97
2023-04-12T06:30:02.276Z,99.38
2023-04-12T06:31:02.688Z,99.49
2023-04-12T06:32:02.327Z,99.59
2023-04-12T06:33:02.588Z,99.69
2023-04-12T06:34:02.466Z,99.90
2023-04-12T06:35:02.757Z,99.69
2023-04-12T06:36:02.304Z,99.65
2023-04-12T06:37:02.633Z,99.65
2023-04-12T06:38:02.949Z,99.13
2023-04-12T06:39:02.735Z,99.03
2023-04-12T06:40:02.615Z,98.93
2023-04-12T06:41:03.035Z,98.83
2023-04-12T06:42:02.306Z,98.83
2023-04-12T06:43:02.492Z,98.72
2023-04-12T06:44:02.288Z,98.52
2023-04-12T06:45:02.751Z,98.52
2023-04-12T06:46:02.226Z,98.93
2023-04-12T06:47:02.718Z,99.24
2023-04-12T06:48:02.827Z,98.72
2023-04-12T06:49:02.678Z,98.83
2023-04-12T06:50:02.524Z,98.83
2023-04-12T06:51:02.678Z,99.13
2023-04-12T06:52:02.305Z,99.03
2023-04-12T06:53:02.234Z,99.24
2023-04-12T06:54:02.261Z,99.24
2023-04-12T06:55:02.600Z,99.03
2023-04-12T06:56:02.395Z,99.24
2023-04-12T06:57:02.908Z,99.24
2023-04-12T06:58:02.649Z,99.44
2023-04-12T06:59:02.790Z,99.44
2023-04-12T07:00:02.651Z,99.03
2023-04-12T07:01:03.231Z,99.44
2023-04-12T07:02:02.069Z,99.54
2023-04-12T07:03:01.898Z,99.75
2023-04-12T07:04:02.132Z,99.85
2023-04-12T07:05:02.044Z,99.85
2023-04-12T07:06:07.677Z,99.85
2023-04-12T07:07:02.666Z,99.85
2023-04-12T07:08:02.800Z,99.75
2023-04-12T07:09:02.663Z,99.95
2023-04-12T07:10:02.505Z,99.75
2023-04-12T07:11:14.639Z,99.60
2023-04-12T07:12:02.447Z,99.50
2023-04-12T07:13:01.975Z,99.50
2023-04-12T07:14:01.831Z,99.40
2023-04-12T07:15:02.235Z,99.29
2023-04-12T07:16:02.019Z,99.19
2023-04-12T07:17:02.714Z,99.19
2023-04-12T07:18:02.416Z,99.40
2023-04-12T07:19:02.101Z,99.29
2023-04-12T07:20:02.514Z,99.09
2023-04-12T07:21:02.285Z,99.19
2023-04-12T07:22:01.565Z,98.99
2023-04-12T07:23:01.989Z,99.19
2023-04-12T07:24:01.702Z,99.70
2023-04-12T07:25:01.607Z,99.91
2023-04-12T07:26:01.522Z,99.70
2023-04-12T07:27:02.074Z,99.70
2023-04-12T07:28:01.958Z,99.99
2023-04-12T07:29:01.605Z,99.99
2023-04-12T07:30:02.169Z,99.80
2023-04-12T07:31:01.947Z,99.60
2023-04-12T07:32:02.328Z,99.80
2023-04-12T07:33:12.229Z,99.86
2023-04-12T07:34:02.148Z,99.76
2023-04-12T07:35:01.963Z,99.76
2023-04-12T07:36:02.327Z,99.45
2023-04-12T07:37:01.988Z,99.25
2023-04-12T07:38:02.144Z,99.04
2023-04-12T07:39:01.838Z,99.40
2023-04-12T07:40:01.669Z,99.60
2023-04-12T07:41:01.495Z,99.45
2023-04-12T07:42:02.107Z,99.96
2023-04-12T07:43:01.757Z,99.86
2023-04-12T07:44:01.703Z,99.86
2023-04-12T07:45:02.079Z,99.55
2023-04-12T07:46:01.992Z,99.66
2023-04-12T07:47:02.431Z,99.76
2023-04-12T07:48:02.334Z,99.76
2023-04-12T07:49:02.173Z,99.66
2023-04-12T07:50:02.562Z,99.86
2023-04-12T07:51:02.155Z,99.55
2023-04-12T07:52:02.632Z,99.66
2023-04-12T07:53:02.220Z,99.04
2023-04-12T07:54:02.781Z,99.25
2023-04-12T07:55:02.094Z,99.25
2023-04-12T07:56:02.531Z,99.15
2023-04-12T07:57:01.972Z,99.55
2023-04-12T07:58:01.888Z,99.55
2023-04-12T07:59:01.744Z,99.86
2023-04-12T08:00:01.764Z,99.96
2023-04-12T08:01:01.718Z,99.35
2023-04-12T08:02:02.324Z,99.86
2023-04-12T08:03:02.604Z,99.86
2023-04-12T08:04:02.956Z,99.96
2023-04-12T08:05:02.204Z,99.99
2023-04-12T08:06:02.104Z,99.99
2023-04-12T08:07:02.731Z,99.99
2023-04-12T08:08:02.211Z,99.96
2023-04-12T08:09:02.723Z,99.99
2023-04-12T08:10:02.199Z,99.99
2023-04-12T08:11:02.842Z,99.99
2023-04-12T08:12:02.868Z,99.82
2023-04-12T08:13:02.432Z,99.82
2023-04-12T08:14:02.896Z,99.99
2023-04-12T08:15:02.306Z,99.61
2023-04-12T08:16:03.073Z,99.71
2023-04-12T08:17:02.136Z,99.41
2023-04-12T08:18:02.153Z,99.51
2023-04-12T08:19:01.855Z,99.99
2023-04-12T08:20:01.630Z,99.99
2023-04-12T08:21:01.633Z,99.98
2023-04-12T08:22:02.202Z,99.56
2023-04-12T08:23:01.722Z,99.36
2023-04-12T08:24:02.180Z,99.46
2023-04-12T08:25:01.878Z,99.66
2023-04-12T08:26:01.656Z,99.87
2023-04-12T08:27:02.869Z,99.26
2023-04-12T08:28:02.432Z,99.26
2023-04-12T08:29:02.421Z,98.74
2023-04-12T08:30:02.360Z,99.05
2023-04-12T08:31:02.844Z,98.85
2023-04-12T08:32:02.366Z,98.95
2023-04-12T08:33:02.886Z,99.15
2023-04-12T08:34:02.587Z,98.74
2023-04-12T08:35:02.319Z,98.54
2023-04-12T08:36:02.987Z,99.05
2023-04-12T08:37:01.880Z,99.05
2023-04-12T08:38:01.776Z,99.15
2023-04-12T08:39:01.810Z,98.74
2023-04-12T08:40:01.753Z,98.95
2023-04-12T08:41:01.605Z,98.85
2023-04-12T08:42:01.988Z,98.95
2023-04-12T08:43:02.610Z,99.05
2023-04-12T08:44:02.224Z,99.15
2023-04-12T08:45:02.186Z,99.26
2023-04-12T08:46:02.107Z,99.46
2023-04-12T08:47:02.243Z,99.41
2023-04-12T08:48:02.313Z,99.52
2023-04-12T08:49:02.161Z,99.82
2023-04-12T08:50:02.622Z,99.72
2023-04-12T08:51:02.429Z,99.21
2023-04-12T08:52:01.589Z,99.21
2023-04-12T08:53:01.481Z,99.41
2023-04-12T08:54:02.108Z,99.41
2023-04-12T08:55:01.822Z,99.57
2023-04-12T08:56:01.833Z,98.65
2023-04-12T08:57:01.585Z,98.86
2023-04-12T08:58:02.044Z,99.06
2023-04-12T08:59:02.052Z,99.47
2023-04-12T09:00:01.948Z,99.27
2023-04-12T09:01:01.940Z,99.27
2023-04-12T09:02:01.924Z,98.75
2023-04-12T09:03:02.083Z,98.35
2023-04-12T09:04:02.428Z,98.45
2023-04-12T09:05:02.091Z,98.75
2023-04-12T09:06:02.139Z,99.16
2023-04-12T09:07:02.007Z,99.27
2023-04-12T09:08:02.045Z,99.68
2023-04-12T09:09:01.939Z,98.75
2023-04-12T09:10:02.619Z,98.45
2023-04-12T09:11:02.173Z,98.61
2023-04-12T09:12:01.998Z,98.61
2023-04-12T09:13:01.971Z,98.71
2023-04-12T09:14:02.501Z,98.81
2023-04-12T09:15:02.541Z,99.11
2023-04-12T09:16:02.096Z,99.02
2023-04-12T09:17:02.595Z,98.86
2023-04-12T09:18:02.673Z,99.07
2023-04-12T09:19:02.765Z,98.86
2023-04-12T09:20:02.914Z,98.77
2023-04-12T09:21:02.731Z,98.56
2023-04-12T09:22:02.622Z,98.15
2023-04-12T09:23:02.664Z,98.52
2023-04-12T09:24:02.743Z,98.93
2023-04-12T09:25:02.653Z,98.72
2023-04-12T09:26:02.690Z,98.47
2023-04-12T09:27:02.260Z,97.04
2023-04-12T09:28:02.377Z,96.63
2023-04-12T09:29:02.199Z,97.14
2023-04-12T09:30:02.177Z,97.04
2023-04-12T09:31:02.230Z,97.14
2023-04-12T09:32:02.165Z,97.55
2023-04-12T09:33:02.092Z,97.40
2023-04-12T09:34:02.005Z,96.38
2023-04-12T09:35:02.125Z,96.79
2023-04-12T09:36:02.253Z,96.79
2023-04-12T09:37:02.618Z,96.18
2023-04-12T09:38:02.593Z,95.77
2023-04-12T09:39:02.573Z,95.87
2023-04-12T09:40:02.537Z,96.18
2023-04-12T09:41:02.468Z,96.18
2023-04-12T09:42:02.838Z,96.28
2023-04-12T09:43:02.773Z,95.97
2023-04-12T09:44:02.686Z,95.83
2023-04-12T09:45:02.740Z,95.47
2023-04-12T09:46:03.012Z,95.67
2023-04-12T09:47:02.142Z,96.28
2023-04-12T09:48:02.355Z,96.18
2023-04-12T09:49:02.455Z,96.18
2023-04-12T09:50:02.240Z,95.62
2023-04-12T09:51:02.232Z,95.73
2023-04-12T09:52:02.218Z,95.73
2023-04-12T09:53:02.215Z,95.42
2023-04-12T09:54:02.125Z,96.14
2023-04-12T09:55:02.176Z,95.73
2023-04-12T09:56:02.064Z,95.42
2023-04-12T09:57:02.694Z,95.42
2023-04-12T09:58:02.762Z,95.42
2023-04-12T09:59:02.899Z,95.62
2023-04-12T10:00:02.823Z,95.68
2023-04-12T10:01:02.943Z,94.81
2023-04-12T10:02:02.170Z,95.12
2023-04-12T10:03:02.467Z,95.62
2023-04-12T10:04:02.809Z,95.73
2023-04-12T10:05:02.425Z,95.52
2023-04-12T10:06:01.997Z,95.21
2023-04-12T10:07:02.060Z,95.12
2023-04-12T10:08:01.948Z,95.32
2023-04-12T10:09:01.808Z,95.01
2023-04-12T10:10:02.423Z,95.12
2023-04-12T10:11:02.160Z,95.93
2023-04-12T10:12:02.137Z,96.34
2023-04-12T10:13:02.057Z,95.52
2023-04-12T10:14:01.983Z,95.83
2023-04-12T10:15:02.076Z,96.03
2023-04-12T10:16:02.287Z,96.75
2023-04-12T10:17:02.325Z,96.64
2023-04-12T10:18:02.237Z,96.03
2023-04-12T10:19:02.309Z,96.44
2023-04-12T10:20:02.366Z,97.05
2023-04-12T10:21:02.392Z,97.05
2023-04-12T10:22:02.321Z,97.21
2023-04-12T10:23:02.211Z,96.80
2023-04-12T10:24:02.272Z,96.80
2023-04-12T10:25:02.146Z,96.91
2023-04-12T10:26:02.319Z,97.21
2023-04-12T10:27:02.064Z,97.41
2023-04-12T10:28:02.158Z,97.00
2023-04-12T10:29:02.293Z,97.27
2023-04-12T10:30:02.042Z,95.84
2023-04-12T10:31:01.874Z,96.04
2023-04-12T10:32:02.754Z,96.04
2023-04-12T10:33:02.508Z,96.45
2023-04-12T10:34:02.619Z,96.15
2023-04-12T10:35:02.625Z,96.20
2023-04-12T10:36:02.849Z,96.00
2023-04-12T10:37:02.769Z,96.10
2023-04-12T10:38:02.760Z,95.08
2023-04-12T10:39:02.845Z,95.39
2023-04-12T10:40:02.846Z,95.49
2023-04-12T10:41:02.774Z,94.82
2023-04-12T10:42:02.845Z,95.64
2023-04-12T10:43:02.766Z,95.64
2023-04-12T10:44:02.890Z,95.69
2023-04-12T10:45:02.727Z,96.41
2023-04-12T10:46:02.767Z,95.79
2023-04-12T10:47:02.608Z,96.00
2023-04-12T10:48:02.804Z,95.95
2023-04-12T10:49:02.642Z,95.45
2023-04-12T10:50:02.751Z,96.06
2023-04-12T10:51:02.367Z,95.70
2023-04-12T10:52:02.312Z,95.09
2023-04-12T10:53:02.250Z,96.01
2023-04-12T10:54:02.391Z,95.70
2023-04-12T10:55:02.132Z,95.15
2023-04-12T10:56:02.077Z,94.54
2023-04-12T10:57:02.652Z,93.52
2023-04-12T10:58:02.595Z,93.79
2023-04-12T10:59:02.951Z,93.99
2023-04-12T11:00:02.632Z,92.87
2023-04-12T11:01:02.347Z,93.13
2023-04-12T11:02:02.633Z,93.24
2023-04-12T11:03:02.613Z,91.16
2023-04-12T11:04:02.602Z,91.36
2023-04-12T11:05:01.965Z,91.56
2023-04-12T11:06:12.682Z,91.93
2023-04-12T11:07:02.607Z,91.32
2023-04-12T11:08:02.462Z,90.31
2023-04-12T11:09:02.578Z,90.36
2023-04-12T11:10:02.605Z,89.65
2023-04-12T11:11:02.459Z,88.64
2023-04-12T11:12:02.213Z,88.34
2023-04-12T11:13:01.870Z,88.95
2023-04-12T11:14:01.783Z,88.95
2023-04-12T11:15:01.597Z,88.03
2023-04-12T11:16:01.698Z,88.23
2023-04-12T11:17:02.545Z,88.54
2023-04-12T11:18:02.552Z,86.71
2023-04-12T11:19:02.358Z,88.34
2023-04-12T11:20:02.412Z,87.02
2023-04-12T11:21:02.256Z,86.71
2023-04-12T11:22:02.215Z,86.00
2023-04-12T11:23:02.291Z,86.41
2023-04-12T11:24:02.164Z,86.00
2023-04-12T11:25:01.750Z,86.35
2023-04-12T11:26:01.952Z,87.06
2023-04-12T11:27:02.565Z,86.96
2023-04-12T11:28:04.091Z,87.77
2023-04-12T11:29:02.204Z,87.37
2023-04-12T11:30:02.255Z,87.16
2023-04-12T11:31:02.502Z,88.42
2023-04-12T11:32:01.604Z,89.33
2023-04-12T11:33:01.773Z,89.13
2023-04-12T11:34:01.730Z,88.21
2023-04-12T11:35:01.634Z,88.36
2023-04-12T11:36:02.250Z,89.22
2023-04-12T11:37:01.905Z,89.42
2023-04-12T11:38:02.221Z,90.17
2023-04-12T11:39:02.245Z,90.48
2023-04-12T11:40:02.048Z,91.43
2023-04-12T11:41:02.464Z,90.83
2023-04-12T11:42:02.469Z,92.09
2023-04-12T11:43:01.642Z,92.60
2023-04-12T11:44:01.762Z,92.19
2023-04-12T11:45:05.538Z,92.84
2023-04-12T11:46:01.926Z,93.35
2023-04-12T11:47:01.859Z,93.40
2023-04-12T11:48:02.566Z,94.11
2023-04-12T11:49:02.350Z,94.87
2023-04-12T11:50:02.343Z,95.07
2023-04-12T11:51:10.918Z,95.58
2023-04-12T11:52:02.286Z,96.09
2023-04-12T11:53:02.972Z,95.07
2023-04-12T11:54:03.038Z,95.28
2023-04-12T11:55:02.774Z,96.30
2023-04-12T11:56:02.740Z,96.80
2023-04-12T11:57:04.251Z,96.66
2023-04-12T11:58:01.813Z,95.94
2023-04-12T11:59:01.988Z,95.03
2023-04-12T12:00:01.982Z,94.01
2023-04-12T12:01:02.027Z,93.40
2023-04-12T12:02:08.249Z,93.80
2023-04-12T12:03:07.267Z,94.31
2023-04-12T12:04:03.051Z,93.76
2023-04-12T12:05:02.920Z,93.76
2023-04-12T12:06:03.223Z,94.47
2023-04-12T12:07:02.564Z,94.84
2023-04-12T12:08:02.432Z,95.24
2023-04-12T12:09:02.224Z,95.40
2023-04-12T12:10:02.178Z,95.20
2023-04-12T12:11:07.963Z,94.08
2023-04-12T12:12:02.262Z,93.43
2023-04-12T12:13:02.898Z,91.03
2023-04-12T12:14:03.084Z,91.23
2023-04-12T12:15:03.133Z,92.00
2023-04-12T12:16:03.227Z,91.03
2023-04-12T12:17:02.973Z,91.60
2023-04-12T12:18:03.071Z,90.78
2023-04-12T12:19:03.181Z,91.19
2023-04-12T12:20:02.840Z,90.58
2023-04-12T12:21:02.836Z,89.22
2023-04-12T12:22:02.743Z,89.62
2023-04-12T12:23:02.464Z,89.92
2023-04-12T12:24:02.296Z,88.30
2023-04-12T12:25:02.102Z,88.60
2023-04-12T12:26:17.736Z,85.66
2023-04-12T12:27:02.250Z,85.76
2023-04-12T12:28:02.891Z,86.68
2023-04-12T12:29:02.775Z,87.79
2023-04-12T12:30:03.097Z,85.80
2023-04-12T12:31:02.725Z,85.70
2023-04-12T12:32:02.857Z,86.31
2023-04-12T12:33:02.758Z,86.92
2023-04-12T12:34:04.223Z,86.71
2023-04-12T12:35:02.421Z,87.12
2023-04-12T12:36:02.502Z,86.41
2023-04-12T12:37:02.549Z,85.80
2023-04-12T12:38:02.359Z,85.09
2023-04-12T12:39:02.177Z,86.15
2023-04-12T12:40:01.932Z,86.71
2023-04-12T12:41:02.345Z,87.93
2023-04-12T12:42:02.098Z,87.93
2023-04-12T12:43:02.857Z,87.29
2023-04-12T12:44:02.915Z,86.98
2023-04-12T12:45:02.587Z,86.98
2023-04-12T12:46:02.625Z,87.75
2023-04-12T12:47:10.199Z,87.04
2023-04-12T12:48:02.292Z,85.92
2023-04-12T12:49:02.137Z,87.34
2023-04-12T12:50:02.150Z,86.80
2023-04-12T12:51:02.518Z,86.69
2023-04-12T12:52:02.003Z,86.90
2023-04-12T12:53:02.743Z,86.55